Time;durP1;ratioP1;P1;durP2;ratioP2;P2;SDS_P1;SDS_P2;PMS_P1;PMS_P2;Temp;Humidity;BMP_temperature;BMP_pressure;BME280_temperature;BME280_humidity;BME280_pressure;Samples;Min_cycle;Max_cycle;Signal;HPM_P1;HPM_P2
2022/01/05 00:00:10;;;;;;;11.25;3.92;;;3.40;99.90;;;;;;4955717;28;20413;-75
2022/01/05 00:02:37;;;;;;;14.63;3.13;;;3.30;99.90;;;;;;4970162;28;20101;-75
2022/01/05 00:05:04;;;;;;;10.10;3.60;;;3.20;99.90;;;;;;4954449;28;20106;-75
2022/01/05 00:07:31;;;;;;;13.45;3.15;;;3.20;99.90;;;;;;4951255;28;20856;-76
2022/01/05 00:09:58;;;;;;;11.15;2.92;;;3.20;99.90;;;;;;4971167;28;20059;-75
2022/01/05 00:12:25;;;;;;;23.65;3.83;;;3.20;99.90;;;;;;4954398;28;20061;-75
2022/01/05 00:14:52;;;;;;;12.70;2.38;;;3.20;99.90;;;;;;4978340;23;20216;-73
2022/01/05 00:17:19;;;;;;;15.27;3.15;;;3.10;99.90;;;;;;4990568;28;20067;-74
2022/01/05 00:19:46;;;;;;;14.65;3.67;;;3.10;99.90;;;;;;4960585;28;20082;-74
2022/01/05 00:22:12;;;;;;;16.45;3.85;;;3.20;99.90;;;;;;4979270;28;20418;-76
2022/01/05 00:24:41;;;;;;;17.73;3.10;;;3.20;99.90;;;;;;4995667;28;20085;-76
2022/01/05 00:27:08;;;;;;;12.20;3.47;;;3.20;99.90;;;;;;4996263;28;20125;-75
2022/01/05 00:29:34;;;;;;;9.25;3.65;;;3.10;99.90;;;;;;4996777;28;20113;-75
2022/01/05 00:32:02;;;;;;;12.35;4.30;;;3.10;99.90;;;;;;4962032;28;20093;-75
2022/01/05 00:34:29;;;;;;;9.27;3.20;;;3.10;99.90;;;;;;4960374;28;20132;-75
2022/01/05 00:36:56;;;;;;;10.98;2.83;;;3.10;99.90;;;;;;4976007;28;20549;-75
2022/01/05 00:39:22;;;;;;;11.27;4.55;;;3.10;99.90;;;;;;4977629;28;20081;-75
2022/01/05 00:41:49;;;;;;;13.50;3.20;;;3.10;99.90;;;;;;4962282;28;20490;-76
2022/01/05 00:44:16;;;;;;;22.90;3.30;;;3.10;99.90;;;;;;4961026;28;20541;-75
2022/01/05 00:46:43;;;;;;;13.38;3.72;;;3.10;99.90;;;;;;4960735;28;20117;-76
2022/01/05 00:49:10;;;;;;;11.88;3.83;;;3.10;99.90;;;;;;4962109;28;20039;-76
2022/01/05 00:51:38;;;;;;;17.02;4.22;;;3.00;99.90;;;;;;4962038;28;20047;-76
2022/01/05 00:54:05;;;;;;;18.55;4.00;;;2.90;99.90;;;;;;4962375;28;20042;-75
2022/01/05 00:56:32;;;;;;;13.10;5.20;;;2.90;99.90;;;;;;4974382;28;20066;-76
2022/01/05 00:58:59;;;;;;;14.70;5.00;;;3.00;99.90;;;;;;4976890;28;20053;-75
2022/01/05 01:01:26;;;;;;;15.05;4.53;;;3.00;99.90;;;;;;4959979;28;20529;-76
2022/01/05 01:03:53;;;;;;;13.43;4.63;;;2.90;99.90;;;;;;4976612;28;20138;-76
2022/01/05 01:06:20;;;;;;;16.17;4.43;;;3.00;99.90;;;;;;4962685;28;20051;-76
2022/01/05 01:08:47;;;;;;;13.38;4.07;;;2.90;99.90;;;;;;4965119;28;20053;-75
2022/01/05 01:11:14;;;;;;;21.02;4.80;;;3.00;99.90;;;;;;4979739;28;20125;-76
2022/01/05 01:13:43;;;;;;;16.98;5.70;;;3.00;99.90;;;;;;4965808;28;20575;-76
2022/01/05 01:16:10;;;;;;;16.65;5.85;;;3.00;99.90;;;;;;4979689;28;20434;-76
2022/01/05 01:18:37;;;;;;;13.65;5.90;;;3.00;99.90;;;;;;4964466;28;20117;-76
2022/01/05 01:21:04;;;;;;;24.08;6.88;;;2.90;99.90;;;;;;4987443;28;20046;-76
2022/01/05 01:23:31;;;;;;;19.55;7.13;;;2.90;99.90;;;;;;4985328;28;20355;-75
2022/01/05 01:25:58;;;;;;;22.30;7.10;;;2.80;99.90;;;;;;4966873;28;20499;-75
2022/01/05 01:28:25;;;;;;;11.50;7.10;;;2.80;99.90;;;;;;4945556;29;20539;-76
2022/01/05 01:30:52;;;;;;;19.27;8.05;;;2.90;99.90;;;;;;4943532;28;20146;-76
2022/01/05 01:33:18;;;;;;;12.57;6.82;;;2.80;99.90;;;;;;4976217;28;20051;-76
2022/01/05 01:35:45;;;;;;;29.42;8.93;;;2.80;99.90;;;;;;4976266;28;20073;-75
2022/01/05 01:38:12;;;;;;;25.35;8.90;;;2.90;99.90;;;;;;4944054;28;20050;-75
2022/01/05 01:40:39;;;;;;;23.35;9.68;;;2.80;99.90;;;;;;4949864;28;20050;-76
2022/01/05 01:43:06;;;;;;;21.45;7.95;;;2.90;99.90;;;;;;4995978;28;20458;-76
2022/01/05 01:45:34;;;;;;;23.50;8.38;;;2.80;99.90;;;;;;4963072;28;20138;-76
2022/01/05 01:48:01;;;;;;;21.05;8.63;;;2.90;99.90;;;;;;4979179;28;20046;-76
2022/01/05 01:50:27;;;;;;;18.83;8.23;;;2.80;99.90;;;;;;4964407;28;20142;-75
2022/01/05 01:52:54;;;;;;;24.90;8.38;;;2.80;99.90;;;;;;4964707;28;20117;-75
2022/01/05 01:55:21;;;;;;;19.55;8.40;;;2.90;99.90;;;;;;4981429;28;20130;-76
2022/01/05 01:57:48;;;;;;;21.30;7.15;;;2.90;99.90;;;;;;4983776;28;20081;-75
2022/01/05 02:00:15;;;;;;;14.18;4.93;;;2.80;99.90;;;;;;4961542;28;20093;-76
2022/01/05 02:02:44;;;;;;;15.93;5.95;;;2.70;99.90;;;;;;4944796;28;20074;-75
2022/01/05 02:05:12;;;;;;;19.50;6.68;;;2.70;99.90;;;;;;4958826;28;20043;-75
2022/01/05 02:07:39;;;;;;;13.55;6.63;;;2.70;99.90;;;;;;4942523;29;20134;-75
2022/01/05 02:10:08;;;;;;;12.13;6.97;;;2.70;99.90;;;;;;4978444;28;20075;-76
2022/01/05 02:12:36;;;;;;;14.63;6.55;;;2.70;99.90;;;;;;4959639;28;20081;-75
2022/01/05 02:15:04;;;;;;;17.50;6.88;;;2.70;99.90;;;;;;4944583;28;20059;-75
2022/01/05 02:17:52;;;;;;;14.38;6.15;;;2.70;99.90;;;;;;4962678;28;20074;-75
2022/01/05 02:20:25;;;;;;;18.83;6.93;;;2.70;99.90;;;;;;4975549;28;20573;-75
2022/01/05 02:22:53;;;;;;;15.45;5.53;;;2.60;99.90;;;;;;4944674;28;20738;-76
2022/01/05 02:25:20;;;;;;;14.90;5.57;;;2.60;99.90;;;;;;4943400;28;20531;-75
2022/01/05 02:27:50;;;;;;;18.40;5.60;;;2.60;99.90;;;;;;4943583;28;20043;-75
2022/01/05 02:30:24;;;;;;;15.57;5.90;;;2.50;99.90;;;;;;4945188;28;20458;-75
2022/01/05 02:32:50;;;;;;;15.73;4.47;;;2.50;99.90;;;;;;4940282;29;20062;-75
2022/01/05 02:35:17;;;;;;;13.38;4.88;;;2.50;99.90;;;;;;4945998;28;20314;-75
2022/01/05 02:37:46;;;;;;;21.25;5.22;;;2.50;99.90;;;;;;4963224;28;20051;-75
2022/01/05 02:40:16;;;;;;;16.88;4.78;;;2.50;99.90;;;;;;4961672;28;20126;-75
2022/01/05 02:42:43;;;;;;;17.38;4.63;;;2.40;99.90;;;;;;4966376;28;20081;-75
2022/01/05 02:45:12;;;;;;;9.70;4.55;;;2.40;99.90;;;;;;4981490;28;20153;-75
2022/01/05 02:47:39;;;;;;;14.98;4.93;;;2.40;99.90;;;;;;4971075;28;20038;-75
2022/01/05 02:50:08;;;;;;;10.85;3.75;;;2.30;99.90;;;;;;4974982;28;20042;-74
2022/01/05 02:52:35;;;;;;;15.20;5.85;;;2.30;99.90;;;;;;4978136;28;20117;-74
2022/01/05 02:55:04;;;;;;;15.93;5.35;;;2.30;99.90;;;;;;4962286;28;20085;-74
2022/01/05 02:57:31;;;;;;;24.63;7.90;;;2.30;99.90;;;;;;4962004;28;20059;-75
2022/01/05 02:59:58;;;;;;;13.50;5.95;;;2.30;99.90;;;;;;4976845;28;20595;-75
2022/01/05 03:02:24;;;;;;;7.72;4.10;;;2.40;99.90;;;;;;4942363;28;20039;-75
2022/01/05 03:04:52;;;;;;;22.27;5.65;;;2.30;99.90;;;;;;4973885;28;20051;-75
2022/01/05 03:07:18;;;;;;;23.50;5.90;;;2.30;99.90;;;;;;4941101;28;20055;-75
2022/01/05 03:09:45;;;;;;;20.83;5.22;;;2.30;99.90;;;;;;4943719;29;20354;-75
2022/01/05 03:12:13;;;;;;;14.98;5.88;;;2.30;99.90;;;;;;4960478;28;20141;-75
2022/01/05 03:14:40;;;;;;;22.27;6.15;;;2.40;99.90;;;;;;4977075;28;20078;-75
2022/01/05 03:17:07;;;;;;;21.27;6.03;;;2.40;99.90;;;;;;4966618;28;20319;-75
2022/01/05 03:19:33;;;;;;;20.77;6.15;;;2.40;99.90;;;;;;4961187;28;20043;-75
2022/01/05 03:22:01;;;;;;;15.18;6.95;;;2.40;99.90;;;;;;4948702;28;20236;-75
2022/01/05 03:24:27;;;;;;;32.25;7.90;;;2.30;99.90;;;;;;4941923;28;20150;-75
2022/01/05 03:26:54;;;;;;;18.63;7.68;;;2.30;99.90;;;;;;4972616;28;20066;-75
2022/01/05 03:29:22;;;;;;;14.65;6.22;;;2.30;99.90;;;;;;4962471;28;20078;-75
2022/01/05 03:31:49;;;;;;;22.60;8.02;;;2.30;99.90;;;;;;4946011;28;20082;-75
2022/01/05 03:34:19;;;;;;;23.63;8.02;;;2.30;99.90;;;;;;4941899;29;20642;-75
2022/01/05 03:36:46;;;;;;;17.60;7.93;;;2.30;99.90;;;;;;4986925;28;20086;-76
2022/01/05 03:39:14;;;;;;;23.60;9.18;;;2.30;99.90;;;;;;4960649;28;20237;-75
2022/01/05 03:41:41;;;;;;;17.45;8.32;;;2.30;99.90;;;;;;4947741;28;20519;-75
2022/01/05 03:44:08;;;;;;;23.50;9.35;;;2.30;99.90;;;;;;4944113;29;20055;-76
2022/01/05 03:46:35;;;;;;;20.48;9.90;;;2.30;99.90;;;;;;4954941;28;20066;-75
2022/01/05 03:49:02;;;;;;;22.70;10.48;;;2.30;99.90;;;;;;4977081;28;20058;-75
2022/01/05 03:51:29;;;;;;;21.98;10.18;;;2.40;99.90;;;;;;4965837;28;20075;-75
2022/01/05 03:53:55;;;;;;;23.02;10.07;;;2.30;99.90;;;;;;4957422;28;20134;-76
2022/01/05 03:56:22;;;;;;;24.58;10.95;;;2.30;99.90;;;;;;4967661;28;20542;-76
2022/01/05 03:58:49;;;;;;;26.05;11.20;;;2.30;99.90;;;;;;4977090;28;20543;-75
2022/01/05 04:01:16;;;;;;;21.33;10.70;;;2.30;99.90;;;;;;4961705;28;20137;-74
2022/01/05 04:03:43;;;;;;;26.98;11.43;;;2.30;99.90;;;;;;4962318;28;20081;-75
2022/01/05 04:06:10;;;;;;;28.40;10.50;;;2.30;99.90;;;;;;4960007;28;20483;-75
2022/01/05 04:08:37;;;;;;;28.90;12.75;;;2.30;99.90;;;;;;4975521;28;20082;-75
2022/01/05 04:11:03;;;;;;;39.92;12.13;;;2.30;99.90;;;;;;4954137;28;20318;-75
2022/01/05 04:13:30;;;;;;;28.98;11.73;;;2.30;99.90;;;;;;4940504;28;20071;-75
2022/01/05 04:15:57;;;;;;;39.25;11.57;;;2.30;99.90;;;;;;4963572;28;20054;-75
2022/01/05 04:18:23;;;;;;;43.70;15.10;;;2.30;99.90;;;;;;4975746;28;20661;-76
2022/01/05 04:20:50;;;;;;;39.58;15.80;;;2.20;99.90;;;;;;4971489;28;20564;-76
2022/01/05 04:23:17;;;;;;;32.28;15.30;;;2.20;99.90;;;;;;4942919;28;20079;-75
2022/01/05 04:25:44;;;;;;;36.22;17.13;;;2.20;99.90;;;;;;4962355;28;20562;-76
2022/01/05 04:28:11;;;;;;;33.55;16.38;;;2.20;99.90;;;;;;4960758;28;20424;-75
2022/01/05 04:30:37;;;;;;;39.50;15.15;;;2.10;99.90;;;;;;4959848;28;20473;-76
2022/01/05 04:33:04;;;;;;;42.33;20.63;;;2.10;99.90;;;;;;4960716;28;20570;-76
2022/01/05 04:35:51;;;;;;;47.88;23.80;;;2.10;99.90;;;;;;4959505;28;20134;-75
2022/01/05 04:38:18;;;;;;;47.88;23.13;;;2.10;99.90;;;;;;4961569;28;20055;-75
2022/01/05 04:40:44;;;;;;;42.10;23.52;;;2.10;99.90;;;;;;4964101;28;20042;-76
2022/01/05 04:43:11;;;;;;;48.85;23.23;;;2.10;99.90;;;;;;4968044;28;20169;-76
2022/01/05 04:45:38;;;;;;;45.25;24.20;;;2.00;99.90;;;;;;4947339;28;20470;-76
2022/01/05 04:48:05;;;;;;;46.50;23.92;;;2.00;99.90;;;;;;4963692;28;20495;-76
2022/01/05 04:50:32;;;;;;;49.45;25.63;;;2.10;99.90;;;;;;4963430;28;20074;-75
2022/01/05 04:52:59;;;;;;;37.70;20.88;;;2.00;99.90;;;;;;4966349;28;20326;-76
2022/01/05 04:55:25;;;;;;;53.85;25.20;;;2.00;99.90;;;;;;4965110;28;20058;-76
2022/01/05 04:57:52;;;;;;;50.75;24.50;;;1.90;99.90;;;;;;4980190;28;20130;-76
2022/01/05 05:00:19;;;;;;;69.32;27.83;;;1.90;99.90;;;;;;4978633;28;20526;-75
2022/01/05 05:02:45;;;;;;;46.42;24.17;;;1.90;99.90;;;;;;4976258;28;20728;-75
2022/01/05 05:05:12;;;;;;;53.63;28.20;;;1.90;99.90;;;;;;4964135;28;20039;-75
2022/01/05 05:07:39;;;;;;;50.45;27.35;;;1.90;99.90;;;;;;4963770;28;20078;-75
2022/01/05 05:10:06;;;;;;;64.78;30.80;;;1.90;99.90;;;;;;4964090;28;20047;-75
2022/01/05 05:12:33;;;;;;;52.45;28.63;;;1.90;99.90;;;;;;4979548;28;20113;-75
2022/01/05 05:14:59;;;;;;;53.13;28.50;;;1.90;99.90;;;;;;4963004;28;20150;-75
2022/01/05 05:17:26;;;;;;;43.33;24.52;;;1.80;99.90;;;;;;4945276;28;20667;-76
2022/01/05 05:19:53;;;;;;;57.85;30.92;;;1.80;99.90;;;;;;4960480;28;20055;-75
2022/01/05 05:22:19;;;;;;;58.45;30.08;;;1.80;99.90;;;;;;4980387;28;20066;-75
2022/01/05 05:24:46;;;;;;;54.10;28.48;;;1.80;99.90;;;;;;4984826;28;20328;-76
2022/01/05 05:27:13;;;;;;;54.55;28.90;;;1.80;99.90;;;;;;4968022;28;20501;-75
2022/01/05 05:29:40;;;;;;;57.25;28.88;;;1.80;99.90;;;;;;4965568;28;20287;-75
2022/01/05 05:32:07;;;;;;;54.05;29.45;;;1.80;99.90;;;;;;4964918;28;20058;-75
2022/01/05 05:34:34;;;;;;;48.20;24.65;;;1.80;99.90;;;;;;4946243;28;20145;-75
2022/01/05 05:37:02;;;;;;;42.38;23.77;;;1.80;99.90;;;;;;4964343;28;20467;-76
2022/01/05 05:39:28;;;;;;;48.13;24.70;;;1.80;99.90;;;;;;4965649;28;20130;-76
2022/01/05 05:41:55;;;;;;;47.25;24.13;;;1.70;99.90;;;;;;4965271;28;20527;-75
2022/01/05 05:44:22;;;;;;;43.78;23.55;;;1.70;99.90;;;;;;4979592;28;20042;-76
2022/01/05 05:46:49;;;;;;;55.40;26.08;;;1.70;99.90;;;;;;4966545;28;20038;-76
2022/01/05 05:49:16;;;;;;;47.95;24.70;;;1.70;99.90;;;;;;4975670;28;20054;-75
2022/01/05 05:51:42;;;;;;;48.92;23.70;;;1.70;99.90;;;;;;4998754;28;20124;-75
2022/01/05 05:54:10;;;;;;;39.28;22.13;;;1.70;99.90;;;;;;4984892;28;20049;-76
2022/01/05 05:56:36;;;;;;;46.97;23.00;;;1.70;99.90;;;;;;4983672;28;20108;-75
2022/01/05 05:59:03;;;;;;;45.65;23.67;;;1.70;99.90;;;;;;4983236;28;20081;-76
2022/01/05 06:01:30;;;;;;;43.33;22.52;;;1.70;99.90;;;;;;4965020;28;20574;-78
2022/01/05 06:03:57;;;;;;;41.92;19.88;;;1.60;99.90;;;;;;4964912;28;20775;-77
2022/01/05 06:06:24;;;;;;;38.58;17.48;;;1.60;99.90;;;;;;4962703;28;20046;-78
2022/01/05 06:08:51;;;;;;;36.60;15.52;;;1.60;99.90;;;;;;4978903;28;20050;-76
2022/01/05 06:11:17;;;;;;;39.67;17.55;;;1.50;99.90;;;;;;4978918;28;20066;-75
2022/01/05 06:13:44;;;;;;;47.60;18.13;;;1.50;99.90;;;;;;4979444;28;20323;-77
2022/01/05 06:16:11;;;;;;;40.20;15.82;;;1.40;99.90;;;;;;4952176;23;20070;-77
2022/01/05 06:18:38;;;;;;;35.53;15.30;;;1.40;99.90;;;;;;4977425;28;20041;-78
2022/01/05 06:21:04;;;;;;;33.08;13.43;;;1.40;99.90;;;;;;4962619;28;20124;-77
2022/01/05 06:23:31;;;;;;;37.65;14.65;;;1.30;99.90;;;;;;4978418;28;20082;-78
2022/01/05 06:25:58;;;;;;;34.08;13.50;;;1.30;99.90;;;;;;4978505;28;20050;-77
2022/01/05 06:28:25;;;;;;;27.05;14.25;;;1.30;99.90;;;;;;4964065;28;20451;-79
2022/01/05 06:30:51;;;;;;;34.38;12.90;;;1.20;99.90;;;;;;4979182;28;20043;-76
2022/01/05 06:33:18;;;;;;;27.52;10.88;;;1.20;99.90;;;;;;4979297;28;20145;-77
2022/01/05 06:35:45;;;;;;;34.83;13.52;;;1.20;99.90;;;;;;4963248;28;20038;-77
2022/01/05 06:38:12;;;;;;;28.05;9.95;;;1.20;99.90;;;;;;4978079;28;20055;-77
2022/01/05 06:40:39;;;;;;;35.92;13.75;;;1.10;99.90;;;;;;4977512;28;20448;-78
2022/01/05 06:43:06;;;;;;;31.30;12.10;;;1.10;99.90;;;;;;4978838;28;20554;-77
2022/01/05 06:45:34;;;;;;;35.05;12.60;;;1.00;99.90;;;;;;4981082;28;20085;-77
2022/01/05 06:48:00;;;;;;;35.08;14.30;;;1.00;99.90;;;;;;4962040;28;20050;-75
2022/01/05 06:50:28;;;;;;;33.50;11.48;;;1.00;99.90;;;;;;4963999;28;20164;-76
2022/01/05 06:52:55;;;;;;;32.50;12.15;;;1.00;99.90;;;;;;4964105;28;20050;-75
2022/01/05 06:55:22;;;;;;;33.67;13.60;;;0.90;99.90;;;;;;4967921;28;20137;-78
2022/01/05 06:57:51;;;;;;;28.75;11.15;;;1.00;99.90;;;;;;4963991;28;20050;-77
2022/01/05 07:00:20;;;;;;;31.15;10.35;;;1.00;99.90;;;;;;4978355;28;20350;-77
2022/01/05 07:02:47;;;;;;;22.73;8.10;;;1.10;99.90;;;;;;4977807;28;20514;-76
2022/01/05 07:05:14;;;;;;;29.80;10.05;;;1.10;99.90;;;;;;4960185;28;20073;-77
2022/01/05 07:07:41;;;;;;;23.15;7.47;;;1.10;99.90;;;;;;4958276;28;20467;-77
2022/01/05 07:10:09;;;;;;;24.65;7.20;;;1.10;99.90;;;;;;4958295;28;20050;-75
2022/01/05 07:12:36;;;;;;;16.23;7.35;;;1.20;99.90;;;;;;4943945;28;20241;-77
2022/01/05 07:15:04;;;;;;;24.55;7.10;;;1.20;99.90;;;;;;4958023;28;20075;-76
2022/01/05 07:17:31;;;;;;;16.75;5.63;;;1.20;99.90;;;;;;4958410;28;20075;-76
2022/01/05 07:19:58;;;;;;;14.77;5.95;;;1.20;99.90;;;;;;4943915;28;20331;-77
2022/01/05 07:22:25;;;;;;;17.38;6.50;;;1.30;99.90;;;;;;4958395;28;20051;-79
2022/01/05 07:24:52;;;;;;;25.38;7.05;;;1.30;99.90;;;;;;4957107;28;20146;-78
2022/01/05 07:27:19;;;;;;;13.32;4.80;;;1.30;99.90;;;;;;4979667;28;20425;-77
2022/01/05 07:29:45;;;;;;;14.57;5.60;;;1.40;99.90;;;;;;4964658;28;20086;-77
2022/01/05 07:32:12;;;;;;;9.95;4.32;;;1.40;99.90;;;;;;4982546;28;20462;-77
2022/01/05 07:34:39;;;;;;;12.13;4.45;;;1.40;99.90;;;;;;4982281;28;20109;-77
2022/01/05 07:37:06;;;;;;;17.13;5.38;;;1.40;99.90;;;;;;4982570;28;20074;-76
2022/01/05 07:39:38;;;;;;;10.13;4.38;;;1.40;99.90;;;;;;4982435;28;20239;-76
2022/01/05 07:42:06;;;;;;;10.52;5.25;;;1.50;99.90;;;;;;4980056;28;20084;-77
2022/01/05 07:44:33;;;;;;;17.98;4.88;;;1.50;99.90;;;;;;4977267;28;20050;-79
2022/01/05 07:47:00;;;;;;;26.27;6.10;;;1.50;99.90;;;;;;4976699;28;20138;-76
2022/01/05 07:49:27;;;;;;;13.50;5.18;;;1.50;99.90;;;;;;4977226;28;20062;-77
2022/01/05 07:51:54;;;;;;;13.55;4.95;;;1.60;99.90;;;;;;4947228;28;20055;-77
2022/01/05 07:54:21;;;;;;;17.40;5.97;;;1.60;99.90;;;;;;4958876;28;20116;-75
2022/01/05 07:56:47;;;;;;;19.73;5.75;;;1.60;99.90;;;;;;4971451;28;20099;-76
2022/01/05 07:59:14;;;;;;;11.95;5.47;;;1.60;99.90;;;;;;4975902;28;20157;-77
2022/01/05 08:01:41;;;;;;;19.13;5.85;;;1.60;99.90;;;;;;4977648;28;20053;-77
2022/01/05 08:04:08;;;;;;;17.63;5.57;;;1.70;99.90;;;;;;4975889;28;20086;-76
2022/01/05 08:06:35;;;;;;;14.80;5.10;;;1.70;99.90;;;;;;4987496;28;20153;-76
2022/01/05 08:09:02;;;;;;;15.57;5.82;;;1.70;99.90;;;;;;4996898;28;20042;-75
2022/01/05 08:11:34;;;;;;;9.75;5.22;;;1.70;99.90;;;;;;4982004;28;20477;-76
2022/01/05 08:14:01;;;;;;;17.63;6.22;;;1.70;99.90;;;;;;4983372;28;20328;-77
2022/01/05 08:16:27;;;;;;;19.58;5.50;;;1.80;99.90;;;;;;4967415;28;20082;-76
2022/01/05 08:18:54;;;;;;;11.77;5.43;;;1.80;99.90;;;;;;4961208;28;20397;-77
2022/01/05 08:21:22;;;;;;;12.80;5.88;;;1.80;99.90;;;;;;4946907;28;20142;-76
2022/01/05 08:23:49;;;;;;;21.60;6.55;;;1.80;99.90;;;;;;4947443;28;20043;-77
2022/01/05 08:26:16;;;;;;;14.90;6.28;;;1.90;99.90;;;;;;4946990;28;20526;-76
2022/01/05 08:28:43;;;;;;;17.40;6.38;;;1.90;99.90;;;;;;4961846;28;20059;-77
2022/01/05 08:31:10;;;;;;;17.85;5.53;;;1.90;99.90;;;;;;4945553;28;20468;-76
2022/01/05 08:33:37;;;;;;;13.93;5.80;;;1.90;99.90;;;;;;4960470;28;20051;-76
2022/01/05 08:36:04;;;;;;;8.02;4.85;;;1.90;99.90;;;;;;4966558;28;20047;-75
2022/01/05 08:38:32;;;;;;;10.35;5.07;;;1.90;99.90;;;;;;4946662;29;20082;-77
2022/01/05 08:40:58;;;;;;;18.70;6.38;;;1.90;99.90;;;;;;4960643;28;20586;-75
2022/01/05 08:43:25;;;;;;;11.02;5.30;;;2.00;99.90;;;;;;4946322;29;20106;-76
2022/01/05 08:45:52;;;;;;;12.65;5.95;;;1.90;99.90;;;;;;4950787;28;20135;-76
2022/01/05 08:48:19;;;;;;;23.58;6.05;;;2.00;99.90;;;;;;4962001;28;20055;-76
2022/01/05 08:50:47;;;;;;;15.70;6.30;;;2.00;99.90;;;;;;4946451;28;20058;-77
2022/01/05 08:53:13;;;;;;;14.65;5.82;;;2.00;99.90;;;;;;4944899;29;20142;-77
2022/01/05 08:55:44;;;;;;;18.63;5.72;;;2.00;99.90;;;;;;4957742;28;20051;-76
2022/01/05 08:58:12;;;;;;;10.98;5.28;;;2.00;99.90;;;;;;4945512;29;20149;-77
2022/01/05 09:00:39;;;;;;;16.08;6.47;;;2.00;99.90;;;;;;4945888;28;20508;-76
2022/01/05 09:03:06;;;;;;;16.92;5.28;;;2.10;99.90;;;;;;4964828;28;20062;-76
2022/01/05 09:05:33;;;;;;;19.15;5.28;;;2.20;99.90;;;;;;4949243;28;20515;-76
2022/01/05 09:08:01;;;;;;;21.83;6.68;;;2.20;99.90;;;;;;4963160;28;20085;-75
2022/01/05 09:10:29;;;;;;;14.25;5.63;;;2.20;99.90;;;;;;4963859;28;20104;-76
2022/01/05 09:12:57;;;;;;;14.25;4.97;;;2.20;99.90;;;;;;4983286;28;20054;-73
2022/01/05 09:15:25;;;;;;;15.82;6.00;;;2.20;99.90;;;;;;4980115;28;20533;-73
2022/01/05 09:17:52;;;;;;;11.90;5.97;;;2.30;99.90;;;;;;4972730;28;20539;-73
2022/01/05 09:20:19;;;;;;;13.50;6.20;;;2.30;99.90;;;;;;4981043;28;20109;-73
2022/01/05 09:22:46;;;;;;;18.38;5.72;;;2.30;99.90;;;;;;4964842;28;20129;-73
2022/01/05 09:25:15;;;;;;;15.02;6.57;;;2.30;99.90;;;;;;4978093;28;20101;-74
2022/01/05 09:27:41;;;;;;;20.90;8.00;;;2.40;99.90;;;;;;4979402;28;20050;-73
2022/01/05 09:30:11;;;;;;;14.68;7.20;;;2.40;99.90;;;;;;4964682;28;20134;-73
2022/01/05 09:32:39;;;;;;;13.68;6.32;;;2.40;99.90;;;;;;4978736;28;20526;-73
2022/01/05 09:35:08;;;;;;;11.43;5.95;;;2.40;99.90;;;;;;4964566;28;20035;-73
2022/01/05 09:37:40;;;;;;;12.90;6.05;;;2.30;99.90;;;;;;4957173;28;20055;-73
2022/01/05 09:42:54;;;;;;;17.27;7.20;;;2.20;99.90;;;;;;4978077;28;20094;-79
2022/01/05 09:45:22;;;;;;;18.55;6.95;;;2.00;99.90;;;;;;4948713;28;20043;-77
2022/01/05 09:48:25;;;;;;;22.50;8.68;;;1.90;99.90;;;;;;4966956;28;20047;-77
2022/01/05 09:51:01;;;;;;;18.73;7.57;;;1.80;99.90;;;;;;4971779;28;20126;-79
2022/01/05 09:53:30;;;;;;;15.63;7.45;;;1.70;99.90;;;;;;4999137;28;20077;-79
2022/01/05 09:56:17;;;;;;;26.65;10.48;;;1.60;99.90;;;;;;4978466;28;20051;-78
2022/01/05 09:58:43;;;;;;;28.83;10.48;;;1.50;99.90;;;;;;4978281;28;20081;-79
2022/01/05 10:01:11;;;;;;;21.95;8.93;;;1.50;99.90;;;;;;4968607;28;20186;-79
2022/01/05 10:03:37;;;;;;;25.00;9.45;;;1.60;99.90;;;;;;4976154;28;20062;-78
2022/01/05 10:06:05;;;;;;;27.80;8.65;;;1.60;99.90;;;;;;4968648;28;20126;-79
2022/01/05 10:08:32;;;;;;;17.48;8.02;;;1.60;99.90;;;;;;4979932;28;20055;-78
2022/01/05 10:10:59;;;;;;;35.50;13.75;;;1.40;99.90;;;;;;4961268;28;20121;-78
2022/01/05 10:13:26;;;;;;;27.27;10.48;;;1.20;99.90;;;;;;4980124;28;20117;-78
2022/01/05 10:15:54;;;;;;;27.15;10.45;;;1.10;99.90;;;;;;4964612;28;20941;-78
2022/01/05 10:18:22;;;;;;;25.65;11.45;;;1.10;99.90;;;;;;4973839;28;20406;-78
2022/01/05 10:21:01;;;;;;;26.38;11.50;;;1.00;99.90;;;;;;4998524;28;20527;-78
2022/01/05 10:23:45;;;;;;;33.95;14.38;;;1.00;99.90;;;;;;4999168;28;20132;-77
2022/01/05 10:26:30;;;;;;;36.28;13.52;;;0.90;99.90;;;;;;4978339;28;20125;-77
2022/01/05 10:29:17;;;;;;;32.33;12.80;;;1.00;99.90;;;;;;4979522;28;20220;-79
2022/01/05 10:31:52;;;;;;;28.23;12.60;;;1.00;99.90;;;;;;4979411;28;20113;-78
2022/01/05 10:34:21;;;;;;;32.45;14.90;;;1.00;99.90;;;;;;4964511;28;20499;-78
2022/01/05 10:36:54;;;;;;;33.17;14.70;;;1.00;99.90;;;;;;4978129;28;20515;-78
2022/01/05 10:39:32;;;;;;;29.55;13.77;;;1.00;99.90;;;;;;4964085;28;20078;-77
2022/01/05 10:42:11;;;;;;;29.45;12.65;;;1.10;99.90;;;;;;4963220;28;20058;-78
2022/01/05 10:44:38;;;;;;;23.23;12.93;;;1.20;99.90;;;;;;4964123;28;20097;-78
2022/01/05 10:47:06;;;;;;;27.98;13.70;;;1.20;99.90;;;;;;4954876;28;20559;-78
2022/01/05 10:49:34;;;;;;;33.85;13.00;;;1.20;99.90;;;;;;4959839;28;20499;-77
2022/01/05 10:52:35;;;;;;;35.33;13.95;;;1.20;99.90;;;;;;4945469;28;20039;-79
2022/01/05 10:55:14;;;;;;;39.60;17.50;;;1.30;99.90;;;;;;4940706;28;20054;-77
2022/01/05 10:58:14;;;;;;;42.15;16.33;;;1.30;99.90;;;;;;4937502;29;20094;-77
2022/01/05 11:00:55;;;;;;;32.15;14.20;;;1.20;99.90;;;;;;4963264;28;20133;-77
2022/01/05 11:03:38;;;;;;;33.85;15.20;;;1.20;99.90;;;;;;4978698;28;20046;-76
2022/01/05 11:06:09;;;;;;;43.90;15.68;;;1.20;99.90;;;;;;4986579;28;20096;-77
2022/01/05 11:09:05;;;;;;;28.27;15.45;;;1.20;99.90;;;;;;4970527;28;20144;-77
2022/01/05 11:11:39;;;;;;;;;;;1.20;99.90;;;;;;4951287;28;20499;-77
2022/01/05 11:14:15;;;;;;;31.50;13.50;;;1.20;99.90;;;;;;4975901;28;19922;-77
2022/01/05 11:16:44;;;;;;;33.95;12.75;;;1.20;99.90;;;;;;4943386;28;20138;-77
2022/01/05 11:19:14;;;;;;;38.30;16.65;;;1.20;99.90;;;;;;4958617;28;20055;-77
2022/01/05 11:22:14;;;;;;;30.50;14.93;;;1.20;99.90;;;;;;4943108;28;20055;-77
2022/01/05 11:24:50;;;;;;;35.22;14.07;;;1.10;99.90;;;;;;4957244;28;20935;-74
2022/01/05 11:27:24;;;;;;;29.75;13.13;;;1.20;99.90;;;;;;4940865;28;20106;-73
2022/01/05 11:29:52;;;;;;;34.33;12.82;;;1.10;99.90;;;;;;4958586;28;20247;-73
2022/01/05 11:32:25;;;;;;;26.58;12.35;;;1.00;99.90;;;;;;4970316;28;20071;-73
2022/01/05 11:34:52;;;;;;;33.97;15.35;;;1.00;99.90;;;;;;4942160;29;20059;-73
2022/01/05 11:37:19;;;;;;;27.75;14.88;;;1.10;99.90;;;;;;4974910;28;20220;-73
2022/01/05 11:39:50;;;;;;;41.25;18.33;;;1.10;99.90;;;;;;4977842;28;20162;-74
2022/01/05 11:42:33;;;;;;;45.28;18.95;;;1.10;99.90;;;;;;4976805;28;20109;-73
2022/01/05 11:45:01;;;;;;;31.83;14.13;;;1.20;99.90;;;;;;4961042;28;20271;-74
2022/01/05 11:47:35;;;;;;;39.53;14.55;;;1.20;99.90;;;;;;4942442;28;20055;-73
2022/01/05 11:50:14;;;;;;;24.45;12.07;;;1.10;99.90;;;;;;4947860;28;20051;-73
2022/01/05 11:52:59;;;;;;;35.17;12.20;;;1.20;99.90;;;;;;4926580;28;20055;-73
2022/01/05 11:55:28;;;;;;;31.23;13.13;;;1.30;99.90;;;;;;4955743;28;20616;-75
2022/01/05 11:58:15;;;;;;;20.00;10.63;;;1.30;99.90;;;;;;4954646;28;20491;-76
2022/01/05 12:00:43;;;;;;;31.00;14.25;;;1.20;99.90;;;;;;4942003;28;20055;-76
2022/01/05 12:03:10;;;;;;;36.08;14.60;;;1.20;99.90;;;;;;4957651;28;20051;-77
2022/01/05 12:06:06;;;;;;;31.42;14.85;;;1.00;99.90;;;;;;4958145;28;20043;-77
2022/01/05 12:08:51;;;;;;;28.48;13.90;;;1.00;99.90;;;;;;4959906;28;20055;-77
2022/01/05 12:11:41;;;;;;;;;;;1.10;99.90;;;;;;4943149;29;20756;-76
2022/01/05 12:14:20;;;;;;;30.85;13.07;;;1.10;99.90;;;;;;4958739;28;20022;-77
2022/01/05 12:16:59;;;;;;;25.95;13.50;;;1.10;99.90;;;;;;4969494;23;20054;-77
2022/01/05 12:19:28;;;;;;;27.73;13.68;;;1.20;99.90;;;;;;4981736;28;20070;-76
2022/01/05 12:21:57;;;;;;;34.40;17.02;;;1.30;99.90;;;;;;4984267;28;20619;-76
2022/01/05 12:24:53;;;;;;;26.23;13.18;;;1.40;99.90;;;;;;4986344;28;20174;-77
2022/01/05 12:27:32;;;;;;;37.15;15.77;;;1.50;99.90;;;;;;4982796;28;20051;-76
2022/01/05 12:30:19;;;;;;;41.63;19.05;;;1.50;99.90;;;;;;4964561;28;20148;-75
2022/01/05 12:32:59;;;;;;;34.75;15.63;;;1.60;99.90;;;;;;4962071;28;20065;-74
2022/01/05 12:35:27;;;;;;;34.80;16.45;;;1.60;99.90;;;;;;4978440;28;20050;-76
2022/01/05 12:37:57;;;;;;;24.88;12.60;;;1.70;99.90;;;;;;4963216;28;20073;-76
2022/01/05 12:40:42;;;;;;;39.88;16.27;;;1.70;99.90;;;;;;4960519;28;20062;-76
2022/01/05 12:43:09;;;;;;;;;;;1.80;99.90;;;;;;4963321;28;20109;-76
2022/01/05 12:45:51;;;;;;;41.08;17.23;;;1.80;99.90;;;;;;4967903;28;20389;-75
2022/01/05 12:48:33;;;;;;;27.70;14.48;;;1.80;99.90;;;;;;4980501;28;20061;-76
2022/01/05 12:51:18;;;;;;;29.23;14.05;;;1.80;99.90;;;;;;4992540;28;20050;-76
2022/01/05 12:54:06;;;;;;;24.45;11.52;;;1.80;99.90;;;;;;4978779;28;20057;-74
2022/01/05 12:56:50;;;;;;;30.52;16.17;;;1.80;99.90;;;;;;4976707;28;20108;-75